createdAt,value
2022-12-11T00:00:30.762Z,34.97
2022-12-11T00:02:58.528Z,46.77
2022-12-11T00:05:27.663Z,47.80
2022-12-11T00:07:55.630Z,45.87
2022-12-11T00:10:23.422Z,42.57
2022-12-11T00:12:51.242Z,50.50
2022-12-11T00:15:19.445Z,39.73
2022-12-11T00:17:47.194Z,38.40
2022-12-11T00:20:15.047Z,47.07
2022-12-11T00:22:44.203Z,40.40
2022-12-11T00:25:12.339Z,34.27
2022-12-11T00:27:40.209Z,35.90
2022-12-11T00:30:09.293Z,45.90
2022-12-11T00:32:37.834Z,34.90
2022-12-11T00:35:06.245Z,36.57
2022-12-11T00:37:34.128Z,24.93
2022-12-11T00:40:03.311Z,28.53
2022-12-11T00:42:31.101Z,37.10
2022-12-11T00:44:58.831Z,34.30
2022-12-11T00:47:26.586Z,38.87
2022-12-11T00:49:54.308Z,33.20
2022-12-11T00:52:22.088Z,29.87
2022-12-11T00:54:49.928Z,35.70
2022-12-11T00:57:19.008Z,36.00
2022-12-11T00:59:46.762Z,38.20
2022-12-11T01:02:14.567Z,30.77
2022-12-11T01:04:42.329Z,34.77
2022-12-11T01:07:10.085Z,30.70
2022-12-11T01:09:55.166Z,33.30
2022-12-11T01:12:24.321Z,37.40
2022-12-11T01:14:52.281Z,29.03
2022-12-11T01:17:20.061Z,31.97
2022-12-11T01:19:47.912Z,36.80
2022-12-11T01:22:15.684Z,32.27
2022-12-11T01:24:43.485Z,39.20
2022-12-11T01:27:11.273Z,36.73
2022-12-11T01:29:40.404Z,34.93
2022-12-11T01:32:08.141Z,39.63
2022-12-11T01:34:35.880Z,40.23
2022-12-11T01:37:12.985Z,29.80
2022-12-11T01:39:40.785Z,28.37
2022-12-11T01:42:11.711Z,27.97
2022-12-11T01:45:26.740Z,31.57
2022-12-11T01:48:01.992Z,30.73
2022-12-11T01:50:30.569Z,28.73
2022-12-11T01:52:58.808Z,38.93
2022-12-11T01:55:27.152Z,36.03
2022-12-11T01:57:55.578Z,32.73
2022-12-11T02:00:25.280Z,31.67
2022-12-11T02:02:53.204Z,32.20
2022-12-11T02:05:21.123Z,34.10
2022-12-11T02:07:53.763Z,34.53
2022-12-11T02:10:22.245Z,28.33
2022-12-11T02:12:57.731Z,36.03
2022-12-11T02:15:34.506Z,32.47
2022-12-11T02:18:11.588Z,32.03
2022-12-11T02:20:43.162Z,35.07
2022-12-11T02:23:35.531Z,40.10
2022-12-11T02:26:13.254Z,33.37
2022-12-11T02:28:47.330Z,30.67
2022-12-11T02:31:23.130Z,36.50
2022-12-11T02:34:00.077Z,34.07
2022-12-11T02:36:32.367Z,33.80
2022-12-11T02:39:04.031Z,31.20
2022-12-11T02:41:34.859Z,30.63
2022-12-11T02:44:05.531Z,32.97
2022-12-11T02:46:36.810Z,32.17
2022-12-11T02:49:06.924Z,33.77
2022-12-11T02:51:37.350Z,30.00
2022-12-11T02:54:07.355Z,28.77
2022-12-11T02:56:41.505Z,44.60
2022-12-11T02:59:17.216Z,37.80
2022-12-11T03:01:45.140Z,39.27
2022-12-11T03:04:13.280Z,43.97
2022-12-11T03:06:46.794Z,43.97
2022-12-11T03:09:14.869Z,35.93
2022-12-11T03:11:42.652Z,36.43
2022-12-11T03:14:12.234Z,43.37
2022-12-11T03:16:44.157Z,34.40
2022-12-11T03:19:20.531Z,33.90
2022-12-11T03:21:55.125Z,38.57
2022-12-11T03:24:29.679Z,43.53
2022-12-11T03:27:02.805Z,37.07
2022-12-11T03:29:38.878Z,36.63
2022-12-11T03:32:10.458Z,39.70
2022-12-11T03:34:43.856Z,39.33
2022-12-11T03:37:13.730Z,39.80
2022-12-11T03:39:46.105Z,35.47
2022-12-11T03:42:16.867Z,42.13
2022-12-11T03:44:50.493Z,40.70
2022-12-11T03:47:21.831Z,47.83
2022-12-11T03:49:51.455Z,42.73
2022-12-11T03:52:20.961Z,37.90
2022-12-11T03:54:51.750Z,46.07
2022-12-11T03:57:23.551Z,37.27
2022-12-11T03:59:52.701Z,51.57
2022-12-11T04:02:20.435Z,46.20
2022-12-11T04:04:48.252Z,48.07
2022-12-11T04:07:16.084Z,44.87
2022-12-11T04:09:43.915Z,42.53
2022-12-11T04:12:11.692Z,46.20
2022-12-11T04:14:56.958Z,49.83
2022-12-11T04:17:43.457Z,46.60
2022-12-11T04:20:29.190Z,41.73
2022-12-11T04:23:14.321Z,41.60
2022-12-11T04:25:42.162Z,40.47
2022-12-11T04:28:10.079Z,42.67
2022-12-11T04:30:37.892Z,43.63
2022-12-11T04:33:07.940Z,44.70
2022-12-11T04:35:35.843Z,45.73
2022-12-11T04:38:03.681Z,46.07
2022-12-11T04:40:31.494Z,40.73
2022-12-11T04:42:59.269Z,40.20
2022-12-11T04:45:27.040Z,41.23
2022-12-11T04:47:54.815Z,40.90
2022-12-11T04:50:24.038Z,46.20
2022-12-11T04:52:51.823Z,37.83
2022-12-11T04:55:19.679Z,35.27
2022-12-11T04:57:47.545Z,39.33
2022-12-11T05:00:16.173Z,41.37
2022-12-11T05:02:44.266Z,34.97
2022-12-11T05:05:12.935Z,36.80
2022-12-11T05:07:42.971Z,35.13
2022-12-11T05:10:11.424Z,32.30
2022-12-11T05:12:39.220Z,32.63
2022-12-11T05:15:08.044Z,39.03
2022-12-11T05:17:35.914Z,34.63
2022-12-11T05:20:03.775Z,34.70
2022-12-11T05:22:32.089Z,39.83
2022-12-11T05:25:01.254Z,35.27
2022-12-11T05:27:29.115Z,38.87
2022-12-11T05:29:59.560Z,39.73
2022-12-11T05:32:27.932Z,37.70
2022-12-11T05:34:55.659Z,28.53
2022-12-11T05:37:23.537Z,34.27
2022-12-11T05:39:51.333Z,39.10
2022-12-11T05:42:24.096Z,35.73
2022-12-11T05:44:56.231Z,36.17
2022-12-11T05:47:23.950Z,35.50
2022-12-11T05:49:51.692Z,38.60
2022-12-11T05:52:19.406Z,40.80
2022-12-11T05:54:49.841Z,43.17
2022-12-11T05:57:17.726Z,39.50
2022-12-11T05:59:47.240Z,38.53
2022-12-11T06:02:15.094Z,39.20
2022-12-11T06:04:43.009Z,42.43
2022-12-11T06:07:10.814Z,44.57
2022-12-11T06:09:38.528Z,39.53
2022-12-11T06:12:06.538Z,46.90
2022-12-11T06:14:34.286Z,40.47
2022-12-11T06:17:03.713Z,41.77
2022-12-11T06:19:36.554Z,39.57
2022-12-11T06:22:04.950Z,43.97
2022-12-11T06:24:32.659Z,40.57
2022-12-11T06:27:00.453Z,41.97
2022-12-11T06:29:28.211Z,35.23
2022-12-11T06:31:56.028Z,44.37
2022-12-11T06:34:25.189Z,42.97
2022-12-11T06:36:52.970Z,37.43
2022-12-11T06:39:20.718Z,43.73
2022-12-11T06:41:48.407Z,37.87
2022-12-11T06:44:16.174Z,44.63
2022-12-11T06:46:43.887Z,35.43
2022-12-11T06:49:11.603Z,37.70
2022-12-11T06:51:40.868Z,35.50
2022-12-11T06:54:08.663Z,36.80
2022-12-11T06:56:36.807Z,41.87
2022-12-11T06:59:07.514Z,37.67
2022-12-11T07:01:35.422Z,36.03
2022-12-11T07:04:03.385Z,39.73
2022-12-11T07:06:31.243Z,41.30
2022-12-11T07:09:00.369Z,44.73
2022-12-11T07:11:28.131Z,43.20
2022-12-11T07:13:55.946Z,53.87
2022-12-11T07:16:23.787Z,102.10
2022-12-11T07:18:52.587Z,57.07
2022-12-11T07:21:21.309Z,48.70
2022-12-11T07:23:50.007Z,63.53
2022-12-11T07:26:21.650Z,68.50
2022-12-11T07:28:49.770Z,55.53
2022-12-11T07:31:19.952Z,51.60
2022-12-11T07:33:48.612Z,64.40
2022-12-11T07:36:17.386Z,52.43
2022-12-11T07:38:45.122Z,44.53
2022-12-11T07:41:14.788Z,46.97
2022-12-11T07:43:45.495Z,41.17
2022-12-11T07:46:15.940Z,44.23
2022-12-11T07:48:46.383Z,47.43
2022-12-11T07:51:16.042Z,44.47
2022-12-11T07:53:44.246Z,41.60
2022-12-11T07:56:12.368Z,44.83
2022-12-11T07:58:40.163Z,40.47
2022-12-11T08:01:12.877Z,35.30
2022-12-11T08:03:40.948Z,40.90
2022-12-11T08:06:09.467Z,40.97
2022-12-11T08:08:37.917Z,38.73
2022-12-11T08:11:09.170Z,37.80
2022-12-11T08:13:37.290Z,36.60
2022-12-11T08:16:05.888Z,34.30
2022-12-11T08:18:36.454Z,35.53
2022-12-11T08:21:07.126Z,39.37
2022-12-11T08:23:35.483Z,34.83
2022-12-11T08:26:04.562Z,46.87
2022-12-11T08:28:32.421Z,36.00
2022-12-11T08:31:00.642Z,41.43
2022-12-11T08:33:28.505Z,40.33
2022-12-11T08:35:57.645Z,39.90
2022-12-11T08:38:25.830Z,40.97
2022-12-11T08:40:53.662Z,35.67
2022-12-11T08:43:21.570Z,36.80
2022-12-11T08:45:49.413Z,30.30
2022-12-11T08:48:17.540Z,42.77
2022-12-11T08:50:45.466Z,26.43
2022-12-11T08:53:14.651Z,22.90
2022-12-11T08:55:42.376Z,26.73
2022-12-11T08:58:10.489Z,24.70
2022-12-11T09:00:38.440Z,25.73
2022-12-11T09:03:09.845Z,30.17
2022-12-11T09:05:40.665Z,24.37
2022-12-11T09:08:08.846Z,26.03
2022-12-11T09:10:38.073Z,28.97
2022-12-11T09:13:06.098Z,26.50
2022-12-11T09:15:33.912Z,28.90
2022-12-11T09:18:01.673Z,27.17
2022-12-11T09:20:29.978Z,24.13
2022-12-11T09:23:14.818Z,27.40
2022-12-11T09:26:02.133Z,27.60
2022-12-11T09:28:46.534Z,24.70
2022-12-11T09:31:26.950Z,27.27
2022-12-11T09:33:59.096Z,28.40
2022-12-11T09:36:32.999Z,25.77
2022-12-11T09:39:22.793Z,26.50
2022-12-11T09:42:06.042Z,22.97
2022-12-11T09:44:43.823Z,26.90
2022-12-11T09:47:21.695Z,26.43
2022-12-11T09:50:11.413Z,28.23
2022-12-11T09:52:46.218Z,26.30
2022-12-11T09:55:24.215Z,29.93
2022-12-11T09:58:16.637Z,26.13
2022-12-11T10:00:53.609Z,25.63
2022-12-11T10:03:50.922Z,25.83
2022-12-11T10:06:30.498Z,23.33
2022-12-11T10:09:13.040Z,22.23
2022-12-11T10:12:15.929Z,25.50
2022-12-11T10:15:24.387Z,28.23
2022-12-11T10:18:05.556Z,25.90
2022-12-11T10:20:42.508Z,25.27
2022-12-11T10:23:17.873Z,24.43
2022-12-11T10:26:12.574Z,24.87
2022-12-11T10:28:43.346Z,27.50
2022-12-11T10:31:21.063Z,23.03
2022-12-11T10:34:01.273Z,27.20
2022-12-11T10:36:39.096Z,26.33
2022-12-11T10:39:16.649Z,22.63
2022-12-11T10:41:49.421Z,27.30
2022-12-11T10:44:20.483Z,24.70
2022-12-11T10:47:04.859Z,25.07
2022-12-11T10:49:38.300Z,30.20
2022-12-11T10:52:13.019Z,22.67
2022-12-11T10:54:43.632Z,21.90
2022-12-11T10:57:15.596Z,27.10
2022-12-11T10:59:47.736Z,21.93
2022-12-11T11:02:24.953Z,22.17
2022-12-11T11:04:55.005Z,22.20
2022-12-11T11:07:26.015Z,23.33
2022-12-11T11:10:08.218Z,23.97
2022-12-11T11:12:40.887Z,26.50
2022-12-11T11:15:14.274Z,26.47
2022-12-11T11:17:54.629Z,26.17
2022-12-11T11:20:25.315Z,27.67
2022-12-11T11:22:57.160Z,21.50
2022-12-11T11:25:26.809Z,25.00
2022-12-11T11:27:57.320Z,24.73
2022-12-11T11:30:28.070Z,27.27
2022-12-11T11:33:03.225Z,24.60
2022-12-11T11:35:32.872Z,25.67
2022-12-11T11:38:18.548Z,22.13
2022-12-11T11:40:52.766Z,24.77
2022-12-11T11:43:35.590Z,24.00
2022-12-11T11:46:07.364Z,27.07
2022-12-11T11:48:45.936Z,22.33
2022-12-11T11:51:17.492Z,22.67
2022-12-11T11:53:49.954Z,25.67
2022-12-11T11:56:23.924Z,24.13
2022-12-11T11:59:07.617Z,25.83
2022-12-11T12:01:35.854Z,25.87
2022-12-11T12:04:06.264Z,31.17
2022-12-11T12:06:52.096Z,22.67
2022-12-11T12:09:38.637Z,29.60
2022-12-11T12:12:22.769Z,21.67
2022-12-11T12:15:10.759Z,27.93
2022-12-11T12:17:55.206Z,30.83
2022-12-11T12:20:37.991Z,21.97
2022-12-11T12:23:25.385Z,21.87
2022-12-11T12:25:59.067Z,23.23
2022-12-11T12:28:37.642Z,31.87
2022-12-11T12:31:16.546Z,23.20
2022-12-11T12:33:54.703Z,21.27
2022-12-11T12:36:31.640Z,22.27
2022-12-11T12:39:02.672Z,25.60
2022-12-11T12:41:45.166Z,34.03
2022-12-11T12:44:17.334Z,28.23
2022-12-11T12:46:58.278Z,26.83
2022-12-11T12:49:39.652Z,29.57
2022-12-11T12:52:16.472Z,23.07
2022-12-11T12:55:07.755Z,25.27
2022-12-11T12:57:36.525Z,23.57
2022-12-11T13:00:11.122Z,26.33
2022-12-11T13:02:50.492Z,29.67
2022-12-11T13:05:23.914Z,23.50
2022-12-11T13:07:56.773Z,27.23
2022-12-11T13:10:28.920Z,24.07
2022-12-11T13:12:57.080Z,23.77
2022-12-11T13:15:34.282Z,23.43
2022-12-11T13:18:03.980Z,26.53
2022-12-11T13:20:34.221Z,23.90
2022-12-11T13:23:29.159Z,25.13
2022-12-11T13:25:58.690Z,27.67
2022-12-11T13:28:29.564Z,26.17
2022-12-11T13:31:07.751Z,21.97
2022-12-11T13:33:43.031Z,25.13
2022-12-11T13:36:28.216Z,23.30
2022-12-11T13:39:02.217Z,26.87
2022-12-11T13:41:31.336Z,18.93
2022-12-11T13:43:59.830Z,21.53
2022-12-11T13:46:30.244Z,22.40
2022-12-11T13:49:01.168Z,24.07
2022-12-11T13:51:32.281Z,22.60
2022-12-11T13:54:17.778Z,17.87
2022-12-11T13:57:04.620Z,23.27
2022-12-11T13:59:35.148Z,22.40
2022-12-11T14:02:11.238Z,23.70
2022-12-11T14:04:39.581Z,24.47
2022-12-11T14:07:10.940Z,27.97
2022-12-11T14:09:44.475Z,23.50
2022-12-11T14:12:18.531Z,26.83
2022-12-11T14:14:51.316Z,32.10
2022-12-11T14:17:24.638Z,29.67
2022-12-11T14:19:53.790Z,29.77
2022-12-11T14:22:26.729Z,26.00
2022-12-11T14:24:57.913Z,25.50
2022-12-11T14:27:27.477Z,27.70
2022-12-11T14:29:55.903Z,27.90
2022-12-11T14:32:32.449Z,28.07
2022-12-11T14:35:02.714Z,22.27
2022-12-11T14:37:30.760Z,30.33
2022-12-11T14:40:03.271Z,25.93
2022-12-11T14:42:33.555Z,25.57
2022-12-11T14:45:08.388Z,26.20
2022-12-11T14:47:44.901Z,30.63
2022-12-11T14:50:19.585Z,31.50
2022-12-11T14:52:52.184Z,37.30
2022-12-11T14:55:24.142Z,24.97
2022-12-11T14:57:57.228Z,30.43
2022-12-11T15:00:26.794Z,27.30
2022-12-11T15:02:59.843Z,29.70
2022-12-11T15:05:27.998Z,28.03
2022-12-11T15:07:59.339Z,32.63
2022-12-11T15:10:35.525Z,23.77
2022-12-11T15:13:05.293Z,24.10
2022-12-11T15:15:38.634Z,25.50
2022-12-11T15:18:15.018Z,24.40
2022-12-11T15:20:42.968Z,26.87
2022-12-11T15:23:14.115Z,24.53
2022-12-11T15:25:53.180Z,23.93
2022-12-11T15:28:28.045Z,22.27
2022-12-11T15:30:58.537Z,25.57
2022-12-11T15:33:31.142Z,23.33
2022-12-11T15:36:04.514Z,23.10
2022-12-11T15:38:35.392Z,26.93
2022-12-11T15:41:05.357Z,22.30
2022-12-11T15:43:37.986Z,21.60
2022-12-11T15:46:06.733Z,20.27
2022-12-11T15:48:35.035Z,21.10
2022-12-11T15:51:03.869Z,20.97
2022-12-11T15:53:33.161Z,24.37
2022-12-11T15:56:01.535Z,22.47
2022-12-11T15:58:31.394Z,21.47
2022-12-11T16:00:59.447Z,19.13
2022-12-11T16:03:27.372Z,25.10
2022-12-11T16:05:55.478Z,23.90
2022-12-11T16:08:25.058Z,22.97
2022-12-11T16:10:55.128Z,25.27
2022-12-11T16:13:23.414Z,25.07
2022-12-11T16:15:53.882Z,24.33
2022-12-11T16:18:23.674Z,23.53
2022-12-11T16:20:52.745Z,24.40
2022-12-11T16:23:20.829Z,29.37
2022-12-11T16:25:49.184Z,22.87
2022-12-11T16:28:20.738Z,26.17
2022-12-11T16:30:49.644Z,23.13
2022-12-11T16:33:19.144Z,24.77
2022-12-11T16:35:47.330Z,21.93
2022-12-11T16:38:15.557Z,23.03
2022-12-11T16:40:43.629Z,21.27
2022-12-11T16:43:11.606Z,22.80
2022-12-11T16:45:39.398Z,22.90
2022-12-11T16:48:07.517Z,22.00
2022-12-11T16:50:37.643Z,20.27
2022-12-11T16:53:05.520Z,21.57
2022-12-11T16:55:33.412Z,22.40
2022-12-11T16:58:01.474Z,28.83
2022-12-11T17:00:29.247Z,22.00
2022-12-11T17:02:57.366Z,18.80
2022-12-11T17:05:25.599Z,22.07
2022-12-11T17:07:54.813Z,20.43
2022-12-11T17:10:22.906Z,20.97
2022-12-11T17:12:50.758Z,23.27
2022-12-11T17:15:18.900Z,18.00
2022-12-11T17:17:46.673Z,19.73
2022-12-11T17:20:14.426Z,23.33
2022-12-11T17:22:42.287Z,20.87
2022-12-11T17:25:11.600Z,21.50
2022-12-11T17:27:39.613Z,20.53
2022-12-11T17:30:08.848Z,26.17
2022-12-11T17:32:37.764Z,21.93
2022-12-11T17:35:06.477Z,22.03
2022-12-11T17:37:34.579Z,23.77
2022-12-11T17:40:02.725Z,19.80
2022-12-11T17:42:32.098Z,21.47
2022-12-11T17:44:59.857Z,18.43
2022-12-11T17:47:27.827Z,22.93
2022-12-11T17:49:55.644Z,21.93
2022-12-11T17:52:23.569Z,19.23
2022-12-11T17:54:51.918Z,21.63
2022-12-11T17:57:19.715Z,17.10
2022-12-11T17:59:48.913Z,20.33
2022-12-11T18:02:17.124Z,16.27
2022-12-11T18:04:45.005Z,18.70
2022-12-11T18:07:12.903Z,19.13
2022-12-11T18:09:41.394Z,16.03
2022-12-11T18:12:10.146Z,20.73
2022-12-11T18:14:38.638Z,20.67
2022-12-11T18:17:07.888Z,19.23
2022-12-11T18:19:35.731Z,16.67
2022-12-11T18:22:03.465Z,19.07
2022-12-11T18:24:32.754Z,20.90
2022-12-11T18:27:00.932Z,22.67
2022-12-11T18:29:28.959Z,23.80
2022-12-11T18:31:56.855Z,117.60
2022-12-11T18:34:26.022Z,27.27
2022-12-11T18:36:54.026Z,25.17
2022-12-11T18:39:21.977Z,30.47
2022-12-11T18:42:03.528Z,45.20
2022-12-11T18:44:37.664Z,24.33
2022-12-11T18:47:05.544Z,23.23
2022-12-11T18:49:34.796Z,19.53
2022-12-11T18:52:02.589Z,23.43
2022-12-11T18:54:30.373Z,22.30
2022-12-11T18:56:58.280Z,20.33
2022-12-11T18:59:26.463Z,24.73
2022-12-11T19:01:54.358Z,22.53
2022-12-11T19:04:22.265Z,21.57
2022-12-11T19:06:52.510Z,19.30
2022-12-11T19:09:20.291Z,19.57
2022-12-11T19:11:48.646Z,23.33
2022-12-11T19:14:16.747Z,20.57
2022-12-11T19:16:45.508Z,17.00
2022-12-11T19:19:17.586Z,20.03
2022-12-11T19:21:46.876Z,20.43
2022-12-11T19:24:20.405Z,21.37
2022-12-11T19:26:48.378Z,20.17
2022-12-11T19:29:21.156Z,19.10
2022-12-11T19:31:49.038Z,21.07
2022-12-11T19:34:17.227Z,18.00
2022-12-11T19:36:45.194Z,19.53
2022-12-11T19:39:14.307Z,18.87
2022-12-11T19:41:44.006Z,18.83
2022-12-11T19:44:12.226Z,22.10
2022-12-11T19:46:40.228Z,19.03
2022-12-11T19:49:08.243Z,22.70
2022-12-11T19:51:38.563Z,20.17
2022-12-11T19:54:08.250Z,20.97
2022-12-11T19:56:36.819Z,21.33
2022-12-11T19:59:08.395Z,22.07
2022-12-11T20:01:38.201Z,21.50
2022-12-11T20:04:07.661Z,20.40
2022-12-11T20:06:39.107Z,21.80
2022-12-11T20:09:11.044Z,20.90
2022-12-11T20:11:40.255Z,21.53
2022-12-11T20:14:09.793Z,19.30
2022-12-11T20:17:09.223Z,19.13
2022-12-11T20:19:25.844Z,18.13
2022-12-11T20:21:53.593Z,18.20
2022-12-11T20:24:21.506Z,19.10
2022-12-11T20:26:49.803Z,21.67
2022-12-11T20:29:19.116Z,20.07
2022-12-11T20:31:47.201Z,19.67
2022-12-11T20:34:15.183Z,19.97
2022-12-11T20:36:43.002Z,19.67
2022-12-11T20:39:11.487Z,20.50
2022-12-11T20:41:39.271Z,19.50
2022-12-11T20:44:07.566Z,18.13
2022-12-11T20:46:36.797Z,17.30
2022-12-11T20:49:04.609Z,17.27
2022-12-11T20:51:32.815Z,20.90
2022-12-11T20:54:01.330Z,18.57
2022-12-11T20:56:32.065Z,23.30
2022-12-11T20:59:00.883Z,24.73
2022-12-11T21:01:31.632Z,23.87
2022-12-11T21:04:01.337Z,25.43
2022-12-11T21:06:31.962Z,23.17
2022-12-11T21:09:00.877Z,25.77
2022-12-11T21:11:29.846Z,22.07
2022-12-11T21:13:58.172Z,24.47
2022-12-11T21:16:26.264Z,26.60
2022-12-11T21:18:54.354Z,26.10
2022-12-11T21:21:23.584Z,21.37
2022-12-11T21:23:51.424Z,21.97
2022-12-11T21:26:19.425Z,17.37
2022-12-11T21:28:47.417Z,24.33
2022-12-11T21:31:18.348Z,25.70
2022-12-11T21:33:47.476Z,24.10
2022-12-11T21:36:16.429Z,24.40
2022-12-11T21:38:46.761Z,24.60
2022-12-11T21:41:16.145Z,23.03
2022-12-11T21:44:14.645Z,27.60
2022-12-11T21:46:32.813Z,22.93
2022-12-11T21:49:01.051Z,24.93
2022-12-11T21:51:36.472Z,22.20
2022-12-11T21:54:13.111Z,23.73
2022-12-11T21:56:41.636Z,22.87
2022-12-11T21:59:09.710Z,27.07
2022-12-11T22:01:41.027Z,23.27
2022-12-11T22:04:10.454Z,21.07
2022-12-11T22:06:38.520Z,22.43
2022-12-11T22:09:07.684Z,27.23
2022-12-11T22:11:36.339Z,26.60
2022-12-11T22:14:06.774Z,25.70
2022-12-11T22:16:35.668Z,25.30
2022-12-11T22:19:03.580Z,25.77
2022-12-11T22:21:31.373Z,29.80
2022-12-11T22:23:59.868Z,24.40
2022-12-11T22:26:29.608Z,28.33
2022-12-11T22:28:58.210Z,24.63
2022-12-11T22:31:28.001Z,24.93
2022-12-11T22:33:56.950Z,24.97
2022-12-11T22:36:26.435Z,29.67
2022-12-11T22:38:54.633Z,25.80
2022-12-11T22:41:26.045Z,26.70
2022-12-11T22:43:56.410Z,24.43
2022-12-11T22:46:26.229Z,26.73
2022-12-11T22:48:54.744Z,24.37
2022-12-11T22:51:22.805Z,28.27
2022-12-11T22:53:51.214Z,27.23
2022-12-11T22:56:19.040Z,25.53
2022-12-11T22:58:46.942Z,25.10
2022-12-11T23:01:17.941Z,25.50
2022-12-11T23:03:45.934Z,27.97
2022-12-11T23:06:16.020Z,22.40
2022-12-11T23:08:44.357Z,25.20
2022-12-11T23:11:13.408Z,21.27
2022-12-11T23:13:41.762Z,23.37
2022-12-11T23:16:10.165Z,23.17
2022-12-11T23:18:39.753Z,24.03
2022-12-11T23:21:08.756Z,23.13
2022-12-11T23:23:37.291Z,24.53
2022-12-11T23:26:07.113Z,27.00
2022-12-11T23:28:35.166Z,24.57
2022-12-11T23:31:03.040Z,25.67
2022-12-11T23:33:30.819Z,26.53
2022-12-11T23:36:00.223Z,28.97
2022-12-11T23:38:28.176Z,24.67
2022-12-11T23:40:56.323Z,24.90
2022-12-11T23:43:24.268Z,27.13
2022-12-11T23:45:52.280Z,29.83
2022-12-11T23:48:20.185Z,27.80
2022-12-11T23:50:48.118Z,28.97
2022-12-11T23:53:17.297Z,35.50
2022-12-11T23:55:46.364Z,33.67
2022-12-11T23:58:14.167Z,31.47
